sensor_id;sensor_type;location;lat;lon;timestamp;pressure;altitude;pressure_sealevel;temperature;humidity
27980;BME280;15315;50.836;4.430;2022-12-01T00:09:24;102108.69;;;10.13;100.00
27980;BME280;15315;50.836;4.430;2022-12-01T00:19:43;102111.97;;;9.80;100.00
27980;BME280;15315;50.836;4.430;2022-12-01T00:29:44;102110.06;;;10.21;100.00
27980;BME280;15315;50.836;4.430;2022-12-01T00:39:45;102106.94;;;10.86;100.00
27980;BME280;15315;50.836;4.430;2022-12-01T00:49:45;102100.16;;;10.96;100.00
27980;BME280;15315;50.836;4.430;2022-12-01T00:59:46;102102.59;;;10.65;100.00
27980;BME280;15315;50.836;4.430;2022-12-01T01:09:46;102115.00;;;10.12;100.00
27980;BME280;15315;50.836;4.430;2022-12-01T01:19:47;102125.91;;;9.70;100.00
27980;BME280;15315;50.836;4.430;2022-12-01T01:29:47;102135.19;;;10.22;100.00
27980;BME280;15315;50.836;4.430;2022-12-01T01:39:47;102154.53;;;10.31;100.00
27980;BME280;15315;50.836;4.430;2022-12-01T01:49:48;102151.63;;;10.36;100.00
27980;BME280;15315;50.836;4.430;2022-12-01T01:59:54;102146.19;;;10.37;100.00
27980;BME280;15315;50.836;4.430;2022-12-01T02:09:56;102166.50;;;8.57;100.00
27980;BME280;15315;50.836;4.430;2022-12-01T02:40:42;102150.63;;;9.79;100.00
27980;BME280;15315;50.836;4.430;2022-12-01T02:50:46;102159.94;;;10.31;100.00
27980;BME280;15315;50.836;4.430;2022-12-01T03:01:05;102151.84;;;8.87;100.00
27980;BME280;15315;50.836;4.430;2022-12-01T03:11:09;102144.22;;;9.82;100.00
27980;BME280;15315;50.836;4.430;2022-12-01T03:21:31;102147.78;;;10.03;100.00
27980;BME280;15315;50.836;4.430;2022-12-01T03:31:38;102142.00;;;9.92;100.00
27980;BME280;15315;50.836;4.430;2022-12-01T03:41:45;102148.66;;;9.63;100.00
27980;BME280;15315;50.836;4.430;2022-12-01T03:52:04;102155.16;;;9.37;100.00
27980;BME280;15315;50.836;4.430;2022-12-01T04:02:08;102150.63;;;9.79;100.00
27980;BME280;15315;50.836;4.430;2022-12-01T04:12:10;102153.00;;;10.06;100.00
27980;BME280;15315;50.836;4.430;2022-12-01T04:22:32;102144.97;;;10.24;100.00
27980;BME280;15315;50.836;4.430;2022-12-01T04:32:40;102142.72;;;9.75;100.00
27980;BME280;15315;50.836;4.430;2022-12-01T04:42:41;102139.84;;;10.38;100.00
27980;BME280;15315;50.836;4.430;2022-12-01T04:52:42;102140.63;;;10.02;100.00
27980;BME280;15315;50.836;4.430;2022-12-01T05:02:42;102145.16;;;10.40;100.00
27980;BME280;15315;50.836;4.430;2022-12-01T05:12:44;102135.16;;;9.64;100.00
27980;BME280;15315;50.836;4.430;2022-12-01T05:22:47;102144.66;;;10.32;100.00
27980;BME280;15315;50.836;4.430;2022-12-01T05:32:48;102139.81;;;9.59;100.00
27980;BME280;15315;50.836;4.430;2022-12-01T05:42:48;102138.09;;;9.58;100.00
27980;BME280;15315;50.836;4.430;2022-12-01T05:52:49;102142.88;;;10.31;100.00
27980;BME280;15315;50.836;4.430;2022-12-01T06:02:49;102152.63;;;9.95;100.00
27980;BME280;15315;50.836;4.430;2022-12-01T06:12:50;102137.16;;;10.38;100.00
27980;BME280;15315;50.836;4.430;2022-12-01T06:22:50;102135.91;;;10.64;100.00
27980;BME280;15315;50.836;4.430;2022-12-01T06:32:50;102147.22;;;10.15;100.00
27980;BME280;15315;50.836;4.430;2022-12-01T06:42:51;102155.63;;;9.47;100.00
27980;BME280;15315;50.836;4.430;2022-12-01T06:52:51;102167.53;;;10.22;100.00
27980;BME280;15315;50.836;4.430;2022-12-01T07:02:51;102181.50;;;10.11;100.00
27980;BME280;15315;50.836;4.430;2022-12-01T07:12:55;102183.00;;;8.93;100.00
27980;BME280;15315;50.836;4.430;2022-12-01T07:22:56;102176.13;;;9.91;100.00
27980;BME280;15315;50.836;4.430;2022-12-01T07:32:56;102181.09;;;10.20;100.00
27980;BME280;15315;50.836;4.430;2022-12-01T07:42:56;102187.69;;;10.13;100.00
27980;BME280;15315;50.836;4.430;2022-12-01T07:52:57;102191.75;;;10.43;100.00
27980;BME280;15315;50.836;4.430;2022-12-01T08:02:57;102214.03;;;9.66;100.00
27980;BME280;15315;50.836;4.430;2022-12-01T08:12:57;102215.31;;;9.98;100.00
27980;BME280;15315;50.836;4.430;2022-12-01T08:23:01;102218.63;;;10.25;100.00
27980;BME280;15315;50.836;4.430;2022-12-01T08:33:01;102223.78;;;9.49;100.00
27980;BME280;15315;50.836;4.430;2022-12-01T08:43:02;102226.25;;;10.15;100.00
27980;BME280;15315;50.836;4.430;2022-12-01T08:53:02;102228.06;;;9.74;100.00
27980;BME280;15315;50.836;4.430;2022-12-01T09:03:03;102240.78;;;9.91;100.00
27980;BME280;15315;50.836;4.430;2022-12-01T09:13:03;102237.31;;;9.67;100.00
27980;BME280;15315;50.836;4.430;2022-12-01T09:23:04;102237.72;;;10.59;100.00
27980;BME280;15315;50.836;4.430;2022-12-01T09:33:04;102243.28;;;10.36;100.00
27980;BME280;15315;50.836;4.430;2022-12-01T09:43:15;102248.81;;;10.13;100.00
27980;BME280;15315;50.836;4.430;2022-12-01T09:53:20;102246.25;;;9.90;100.00
27980;BME280;15315;50.836;4.430;2022-12-01T10:03:40;102243.91;;;10.02;100.00
27980;BME280;15315;50.836;4.430;2022-12-01T10:13:45;102241.88;;;9.87;100.00
27980;BME280;15315;50.836;4.430;2022-12-01T10:44:19;102216.31;;;10.36;100.00
27980;BME280;15315;50.836;4.430;2022-12-01T10:54:22;102211.72;;;10.58;100.00
27980;BME280;15315;50.836;4.430;2022-12-01T11:04:37;102209.44;;;11.05;100.00
27980;BME280;15315;50.836;4.430;2022-12-01T11:14:52;102192.44;;;11.03;100.00
27980;BME280;15315;50.836;4.430;2022-12-01T11:24:55;102182.75;;;11.18;100.00
27980;BME280;15315;50.836;4.430;2022-12-01T11:35:17;102186.00;;;10.51;100.00
27980;BME280;15315;50.836;4.430;2022-12-01T11:45:28;102183.28;;;11.07;100.00
27980;BME280;15315;50.836;4.430;2022-12-01T11:55:31;102181.16;;;10.95;100.00
27980;BME280;15315;50.836;4.430;2022-12-01T12:26:24;102163.91;;;10.43;100.00
27980;BME280;15315;50.836;4.430;2022-12-01T12:36:41;102158.09;;;11.06;100.00
27980;BME280;15315;50.836;4.430;2022-12-01T12:57:22;102137.31;;;11.08;100.00
27980;BME280;15315;50.836;4.430;2022-12-01T13:07:52;102133.78;;;10.89;100.00
27980;BME280;15315;50.836;4.430;2022-12-01T13:28:25;102121.13;;;10.90;100.00
27980;BME280;15315;50.836;4.430;2022-12-01T13:38:30;102110.38;;;11.60;100.00
27980;BME280;15315;50.836;4.430;2022-12-01T14:08:47;102099.25;;;10.60;100.00
27980;BME280;15315;50.836;4.430;2022-12-01T14:18:52;102105.50;;;11.32;96.89
27980;BME280;15315;50.836;4.430;2022-12-01T14:39:05;102092.81;;;10.81;94.80
27980;BME280;15315;50.836;4.430;2022-12-01T14:49:17;102090.25;;;10.22;99.10
27980;BME280;15315;50.836;4.430;2022-12-01T14:59:22;102101.53;;;11.22;94.72
27980;BME280;15315;50.836;4.430;2022-12-01T15:09:23;102110.03;;;10.79;97.17
27980;BME280;15315;50.836;4.430;2022-12-01T15:19:38;102103.09;;;11.09;93.53
27980;BME280;15315;50.836;4.430;2022-12-01T15:29:43;102094.09;;;10.91;94.27
27980;BME280;15315;50.836;4.430;2022-12-01T15:39:53;102107.63;;;10.54;94.06
27980;BME280;15315;50.836;4.430;2022-12-01T15:49:54;102115.56;;;11.11;94.49
27980;BME280;15315;50.836;4.430;2022-12-01T15:59:56;102109.22;;;10.77;99.15
27980;BME280;15315;50.836;4.430;2022-12-01T16:09:58;102116.84;;;11.22;96.52
27980;BME280;15315;50.836;4.430;2022-12-01T16:30:22;102114.56;;;10.41;100.00
27980;BME280;15315;50.836;4.430;2022-12-01T16:40:24;102117.34;;;10.19;100.00
27980;BME280;15315;50.836;4.430;2022-12-01T16:50:24;102109.38;;;10.55;99.89
27980;BME280;15315;50.836;4.430;2022-12-01T17:00:25;102119.00;;;10.42;99.01
27980;BME280;15315;50.836;4.430;2022-12-01T17:10:26;102141.16;;;10.67;99.51
27980;BME280;15315;50.836;4.430;2022-12-01T17:20:27;102146.81;;;10.04;100.00
27980;BME280;15315;50.836;4.430;2022-12-01T17:30:27;102147.63;;;10.06;100.00
27980;BME280;15315;50.836;4.430;2022-12-01T17:40:27;102143.66;;;9.94;100.00
27980;BME280;15315;50.836;4.430;2022-12-01T17:50:28;102141.25;;;10.27;100.00
27980;BME280;15315;50.836;4.430;2022-12-01T18:00:28;102124.88;;;10.13;100.00
27980;BME280;15315;50.836;4.430;2022-12-01T18:10:29;102107.94;;;10.09;100.00
27980;BME280;15315;50.836;4.430;2022-12-01T18:20:29;102113.84;;;9.38;100.00
27980;BME280;15315;50.836;4.430;2022-12-01T18:30:30;102111.03;;;10.00;100.00
27980;BME280;15315;50.836;4.430;2022-12-01T18:40:30;102112.53;;;10.07;100.00
27980;BME280;15315;50.836;4.430;2022-12-01T18:50:32;102105.88;;;10.34;100.00
27980;BME280;15315;50.836;4.430;2022-12-01T19:00:33;102111.00;;;10.02;100.00
27980;BME280;15315;50.836;4.430;2022-12-01T19:10:33;102114.16;;;10.30;100.00
27980;BME280;15315;50.836;4.430;2022-12-01T19:20:36;102110.72;;;10.08;100.00
27980;BME280;15315;50.836;4.430;2022-12-01T19:30:37;102104.97;;;9.76;100.00
27980;BME280;15315;50.836;4.430;2022-12-01T19:40:37;102104.66;;;9.64;100.00
27980;BME280;15315;50.836;4.430;2022-12-01T19:50:38;102109.25;;;10.39;100.00
27980;BME280;15315;50.836;4.430;2022-12-01T20:00:38;102098.13;;;10.64;100.00
27980;BME280;15315;50.836;4.430;2022-12-01T20:10:45;102105.78;;;10.36;100.00
27980;BME280;15315;50.836;4.430;2022-12-01T20:20:46;102113.25;;;10.49;100.00
27980;BME280;15315;50.836;4.430;2022-12-01T20:30:47;102105.78;;;10.17;100.00
27980;BME280;15315;50.836;4.430;2022-12-01T20:40:51;102117.09;;;9.46;100.00
27980;BME280;15315;50.836;4.430;2022-12-01T20:50:52;102102.50;;;9.91;100.00
27980;BME280;15315;50.836;4.430;2022-12-01T21:00:52;102089.09;;;10.09;100.00
27980;BME280;15315;50.836;4.430;2022-12-01T21:10:53;102092.50;;;10.33;100.00
27980;BME280;15315;50.836;4.430;2022-12-01T21:21:03;102090.94;;;9.88;100.00
27980;BME280;15315;50.836;4.430;2022-12-01T21:31:11;102085.38;;;10.12;100.00
27980;BME280;15315;50.836;4.430;2022-12-01T21:51:23;102065.41;;;9.97;100.00
27980;BME280;15315;50.836;4.430;2022-12-01T22:01:29;102076.53;;;10.08;100.00
27980;BME280;15315;50.836;4.430;2022-12-01T22:11:29;102054.13;;;10.08;100.00
27980;BME280;15315;50.836;4.430;2022-12-01T22:21:36;102051.44;;;10.26;100.00
27980;BME280;15315;50.836;4.430;2022-12-01T22:31:38;102048.00;;;10.60;100.00
27980;BME280;15315;50.836;4.430;2022-12-01T22:41:38;102043.16;;;10.31;100.00
27980;BME280;15315;50.836;4.430;2022-12-01T23:01:59;102041.63;;;10.25;100.00
27980;BME280;15315;50.836;4.430;2022-12-01T23:22:05;102028.28;;;10.22;100.00
27980;BME280;15315;50.836;4.430;2022-12-01T23:32:05;102031.47;;;10.49;100.00
27980;BME280;15315;50.836;4.430;2022-12-01T23:42:07;102025.53;;;10.05;100.00
27980;BME280;15315;50.836;4.430;2022-12-01T23:52:14;102006.63;;;10.78;100.00
